Time;durP1;ratioP1;P1;durP2;ratioP2;P2;SDS_P1;SDS_P2;PMS_P1;PMS_P2;Temp;Humidity;BMP_temperature;BMP_pressure;BME280_temperature;BME280_humidity;BME280_pressure;Samples;Min_cycle;Max_cycle;Signal;HPM_P1;HPM_P2
2022/05/21 00:01:27;;;;;;;3.00;1.23;;;;;;;15.01;71.50;100783.34;5069176;28;20048;-78
2022/05/21 00:03:54;;;;;;;3.75;1.48;;;;;;;15.00;71.28;100799.44;5056917;28;20076;-77
2022/05/21 00:06:21;;;;;;;4.10;1.27;;;;;;;14.87;71.76;100801.09;5061049;28;20399;-77
2022/05/21 00:08:47;;;;;;;2.45;1.48;;;;;;;14.88;72.73;100811.69;5070289;28;20137;-76
2022/05/21 00:11:15;;;;;;;2.03;1.38;;;;;;;14.83;73.20;100819.09;5069495;28;20501;-77
2022/05/21 00:13:41;;;;;;;1.63;1.50;;;;;;;14.79;72.66;100817.56;5064436;28;20078;-77
2022/05/21 00:16:08;;;;;;;3.30;1.45;;;;;;;14.79;72.30;100820.22;5071343;28;20057;-76
2022/05/21 00:18:35;;;;;;;2.22;1.70;;;;;;;14.76;72.83;100835.53;5066503;28;20041;-76
2022/05/21 00:21:03;;;;;;;2.85;1.92;;;;;;;14.78;71.85;100842.50;5058391;28;20128;-76
2022/05/21 00:23:31;;;;;;;3.88;1.70;;;;;;;14.73;70.43;100825.91;5070145;28;20484;-75
2022/05/21 00:26:04;;;;;;;4.05;1.75;;;;;;;14.73;70.47;100836.56;5069271;28;20044;-76
2022/05/21 00:28:33;;;;;;;4.50;1.58;;;;;;;14.66;70.97;100832.50;5052613;28;20048;-76
2022/05/21 00:31:00;;;;;;;4.68;1.92;;;;;;;14.79;70.64;100846.91;5075015;28;20056;-76
2022/05/21 00:33:28;;;;;;;3.13;2.10;;;;;;;14.73;70.58;100853.44;5069207;28;20092;-77
2022/05/21 00:35:54;;;;;;;2.33;2.00;;;;;;;14.67;71.72;100859.09;5066494;28;20473;-76
2022/05/21 00:38:22;;;;;;;4.00;2.03;;;;;;;14.58;71.81;100854.28;5061086;28;20055;-77
2022/05/21 00:40:50;;;;;;;2.58;1.67;;;;;;;14.56;72.77;100855.31;5046270;28;20123;-77
2022/05/21 00:43:35;;;;;;;2.25;1.77;;;;;;;14.54;73.24;100867.88;5061476;28;20041;-76
2022/05/21 00:46:04;;;;;;;5.18;1.92;;;;;;;14.51;73.45;100871.56;5073773;28;20064;-78
2022/05/21 00:48:31;;;;;;;2.40;2.00;;;;;;;14.37;73.28;100858.97;5070030;28;20048;-78
2022/05/21 00:50:58;;;;;;;3.67;1.98;;;;;;;14.38;72.73;100865.16;5067049;28;20468;-76
2022/05/21 00:53:28;;;;;;;2.38;1.85;;;;;;;14.26;73.73;100863.19;5050565;28;20044;-76
2022/05/21 00:55:56;;;;;;;5.07;1.85;;;;;;;14.28;73.81;100867.47;5057789;28;20403;-76
2022/05/21 01:01:13;;;;;;;2.13;1.70;;;;;;;14.34;73.63;100879.59;5065952;28;20049;-78
2022/05/21 01:03:40;;;;;;;3.08;1.70;;;;;;;14.31;74.36;100869.13;5062452;28;20079;-76
2022/05/21 01:06:07;;;;;;;4.10;1.70;;;;;;;14.30;74.39;100870.94;5069502;28;20052;-76
2022/05/21 01:08:33;;;;;;;3.17;1.92;;;;;;;14.32;74.24;100874.34;5060306;28;20473;-76
2022/05/21 01:11:06;;;;;;;3.97;2.20;;;;;;;14.31;74.49;100874.44;5070008;28;20090;-75
2022/05/21 01:13:38;;;;;;;2.97;1.70;;;;;;;14.21;74.57;100871.41;5068067;28;20457;-75
2022/05/21 01:16:05;;;;;;;4.53;1.60;;;;;;;14.26;75.33;100885.34;5051992;28;20113;-76
2022/05/21 01:18:32;;;;;;;5.28;2.00;;;;;;;14.18;76.21;100886.69;5064447;28;20080;-75
2022/05/21 01:21:00;;;;;;;2.33;1.60;;;;;;;14.17;76.31;100888.50;5068248;28;20072;-77
2022/05/21 01:23:27;;;;;;;4.20;2.03;;;;;;;14.13;76.79;100894.09;5056682;28;20062;-76
2022/05/21 01:25:56;;;;;;;4.28;1.73;;;;;;;13.82;76.98;100853.13;5065684;28;20490;-75
2022/05/21 01:28:25;;;;;;;3.15;2.03;;;;;;;14.05;76.64;100894.47;5058405;28;20105;-78
2022/05/21 01:33:30;;;;;;;4.50;2.10;;;;;;;13.97;76.93;100905.56;5739580;22;20085;-77
2022/05/21 01:35:58;;;;;;;3.97;2.07;;;;;;;13.92;76.71;100901.41;5070690;28;20068;-76
2022/05/21 01:38:29;;;;;;;4.85;2.10;;;;;;;13.88;76.71;100910.47;5068248;28;20066;-76
2022/05/21 01:40:57;;;;;;;3.13;2.55;;;;;;;13.80;76.34;100896.72;5049581;28;20063;-77
2022/05/21 01:46:12;;;;;;;4.97;1.90;;;;;;;13.80;75.84;100910.03;5066950;28;20172;-78
2022/05/21 01:48:39;;;;;;;4.93;2.33;;;;;;;13.72;76.23;100905.09;5068936;28;20064;-75
2022/05/21 01:51:07;;;;;;;3.88;2.50;;;;;;;13.68;75.63;100917.72;5078965;28;20113;-75
2022/05/21 01:53:35;;;;;;;5.53;2.63;;;;;;;13.68;75.76;100924.84;5080573;28;20434;-75
2022/05/21 01:56:03;;;;;;;4.55;2.65;;;;;;;13.61;75.97;100926.94;5072803;28;20131;-76
2022/05/21 01:58:30;;;;;;;2.47;2.30;;;;;;;13.56;76.16;100921.00;5068537;28;20499;-77
2022/05/21 02:00:57;;;;;;;4.63;2.70;;;;;;;13.55;76.84;100921.06;5075081;28;20083;-76
2022/05/21 02:03:24;;;;;;;4.05;2.72;;;;;;;13.58;76.33;100932.44;5054987;28;20475;-76
2022/05/21 02:05:51;;;;;;;4.00;2.75;;;;;;;13.53;75.64;100934.47;5083551;28;20063;-76
2022/05/21 02:08:18;;;;;;;5.50;2.45;;;;;;;13.47;76.52;100913.50;5071759;28;20139;-75
2022/05/21 02:10:46;;;;;;;4.35;2.90;;;;;;;13.49;75.94;100919.59;5074883;28;20099;-75
2022/05/21 02:13:19;;;;;;;5.35;3.17;;;;;;;13.53;75.87;100942.47;5056069;28;20072;-77
2022/05/21 02:15:46;;;;;;;3.05;2.75;;;;;;;13.35;74.91;100922.09;5074452;28;20057;-76
2022/05/21 02:18:14;;;;;;;3.42;2.33;;;;;;;13.38;75.58;100932.56;5072716;28;20489;-78
2022/05/21 02:20:41;;;;;;;3.10;2.80;;;;;;;13.44;75.53;100950.03;5072741;28;20139;-77
2022/05/21 02:23:09;;;;;;;6.55;3.25;;;;;;;13.34;75.46;100925.69;5072502;28;20044;-77
2022/05/21 02:25:36;;;;;;;4.45;2.80;;;;;;;13.32;75.64;100941.72;5074061;28;20087;-76
2022/05/21 02:28:03;;;;;;;3.08;2.78;;;;;;;13.31;75.30;100949.78;5075684;28;20063;-75
2022/05/21 02:30:29;;;;;;;6.90;3.35;;;;;;;13.30;75.93;100961.34;5073820;28;20070;-75
2022/05/21 02:32:56;;;;;;;3.25;2.95;;;;;;;13.27;75.86;100962.34;5070787;28;20475;-76
2022/05/21 02:35:23;;;;;;;4.63;2.70;;;;;;;13.20;75.97;100950.31;5073765;28;20170;-75
2022/05/21 02:40:34;;;;;;;3.90;3.13;;;;;;;13.16;76.88;100951.41;5078280;28;20068;-76
2022/05/21 02:43:01;;;;;;;4.80;2.83;;;;;;;13.14;76.95;100955.88;5072541;28;20093;-76
2022/05/21 02:45:29;;;;;;;3.15;2.80;;;;;;;13.00;76.83;100926.44;5070060;28;20139;-75
2022/05/21 02:47:57;;;;;;;3.80;3.13;;;;;;;12.92;77.33;100924.16;5076925;28;20105;-76
2022/05/21 02:50:34;;;;;;;4.28;3.60;;;;;;;13.00;77.41;100942.41;5056508;28;20056;-77
2022/05/21 02:53:06;;;;;;;4.25;3.30;;;;;;;12.92;77.53;100939.22;5071746;28;20124;-76
2022/05/21 02:55:33;;;;;;;6.78;3.40;;;;;;;12.97;77.99;100951.38;5073519;28;20162;-76
2022/05/21 02:58:01;;;;;;;4.93;3.67;;;;;;;12.84;78.10;100930.78;5083002;28;20078;-76
2022/05/21 03:00:30;;;;;;;4.70;3.60;;;;;;;12.92;78.43;100964.03;5079250;28;20052;-75
2022/05/21 03:02:57;;;;;;;4.90;3.47;;;;;;;12.76;78.80;100940.91;5072417;28;20045;-75
2022/05/21 03:05:25;;;;;;;4.47;3.53;;;;;;;12.84;79.04;100962.69;5062688;28;20082;-77
2022/05/21 03:07:53;;;;;;;6.22;3.90;;;;;;;12.80;79.21;100953.97;5070385;28;20060;-75
2022/05/21 03:10:27;;;;;;;4.88;3.97;;;;;;;12.84;79.12;100955.56;5069366;28;20171;-77
2022/05/21 03:12:59;;;;;;;6.47;4.20;;;;;;;12.85;79.18;100959.94;5072226;28;20122;-78
2022/05/21 03:15:29;;;;;;;6.95;3.70;;;;;;;12.86;79.84;100960.81;5070625;28;20044;-76
2022/05/21 03:17:56;;;;;;;4.68;3.80;;;;;;;12.88;79.93;100957.16;5079254;28;20113;-75
2022/05/21 03:20:23;;;;;;;4.63;3.97;;;;;;;12.91;79.46;100951.66;5068578;28;20045;-77
2022/05/21 03:22:50;;;;;;;6.70;4.28;;;;;;;12.93;79.40;100954.25;5076250;28;20128;-76
2022/05/21 03:25:17;;;;;;;5.35;4.50;;;;;;;12.95;79.25;100955.91;5054564;28;20479;-76
2022/05/21 03:27:44;;;;;;;4.78;4.28;;;;;;;12.96;79.64;100946.13;5072876;28;20795;-75
2022/05/21 03:30:14;;;;;;;5.90;4.88;;;;;;;12.96;79.16;100941.69;5053961;28;20056;-75
2022/05/21 03:32:41;;;;;;;;;;;;;;;13.07;78.63;100957.09;5070391;28;20094;-76
2022/05/21 03:35:09;;;;;;;4.85;4.25;;;;;;;13.02;78.48;100952.97;5076177;28;19924;-76
2022/05/21 03:37:37;;;;;;;6.30;4.60;;;;;;;12.89;78.41;100934.97;5068477;28;20131;-76
2022/05/21 03:40:05;;;;;;;6.53;4.82;;;;;;;12.98;78.67;100968.19;5071410;28;20121;-77
2022/05/21 03:42:36;;;;;;;5.70;4.93;;;;;;;12.99;78.70;100961.94;5071897;28;20055;-77
2022/05/21 03:45:04;;;;;;;5.88;4.50;;;;;;;12.98;78.42;100962.88;5073897;28;20048;-77
2022/05/21 03:47:31;;;;;;;6.97;4.25;;;;;;;12.92;78.35;100963.16;5070338;28;20052;-75
2022/05/21 03:49:57;;;;;;;7.03;4.78;;;;;;;12.89;78.83;100960.69;5073084;28;20052;-74
2022/05/21 03:52:24;;;;;;;7.43;4.70;;;;;;;12.89;78.72;100964.19;5078321;28;20087;-75
2022/05/21 03:54:51;;;;;;;7.78;4.70;;;;;;;12.86;78.93;100961.69;5065364;28;20272;-77
2022/05/21 03:57:18;;;;;;;5.93;4.57;;;;;;;12.84;79.52;100960.88;5071593;28;20484;-75
2022/05/21 03:59:45;;;;;;;5.50;4.85;;;;;;;12.87;79.74;100960.75;5070905;28;20048;-76
2022/05/21 04:02:13;;;;;;;6.72;5.03;;;;;;;12.85;80.62;100964.41;5067287;28;20045;-76
2022/05/21 04:04:40;;;;;;;5.95;5.00;;;;;;;12.73;81.43;100943.72;5068333;28;20484;-76
2022/05/21 04:07:07;;;;;;;6.88;5.28;;;;;;;12.81;81.50;100962.81;5070947;28;20114;-74
2022/05/21 04:09:33;;;;;;;6.80;5.10;;;;;;;12.82;81.73;100959.22;5066836;28;20064;-76
2022/05/21 04:12:00;;;;;;;6.78;4.97;;;;;;;12.73;81.43;100957.00;5069534;28;20135;-76
2022/05/21 04:14:27;;;;;;;6.25;5.20;;;;;;;12.80;80.99;100964.59;5073740;28;20519;-76
2022/05/21 04:16:59;;;;;;;8.55;5.10;;;;;;;12.80;81.23;100969.06;5073363;28;20060;-77
2022/05/21 04:19:27;;;;;;;7.40;5.00;;;;;;;12.73;81.05;100957.88;5070329;28;20707;-75
2022/05/21 04:21:53;;;;;;;8.27;5.35;;;;;;;12.89;80.71;100989.91;5068688;28;20502;-75
2022/05/21 04:24:20;;;;;;;6.20;5.25;;;;;;;12.88;81.24;100988.19;5067556;28;20468;-75
2022/05/21 04:26:47;;;;;;;7.28;5.22;;;;;;;12.90;80.90;100997.81;5069819;28;20396;-75
2022/05/21 04:29:15;;;;;;;6.05;5.43;;;;;;;12.78;80.71;100971.78;5072133;28;20076;-76
2022/05/21 04:31:43;;;;;;;7.30;5.22;;;;;;;12.86;80.89;100993.56;5068508;28;20105;-76
2022/05/21 04:34:13;;;;;;;7.20;5.63;;;;;;;12.85;80.91;100994.50;5070959;28;20041;-76
2022/05/21 04:36:39;;;;;;;7.38;5.45;;;;;;;12.74;80.83;100972.03;5067289;28;20040;-76
2022/05/21 04:39:06;;;;;;;6.25;5.65;;;;;;;12.92;80.88;101006.56;5069069;28;20053;-75
2022/05/21 04:41:34;;;;;;;8.90;5.40;;;;;;;12.95;81.28;101000.22;5074839;28;20549;-78
2022/05/21 04:44:02;;;;;;;6.75;5.10;;;;;;;12.99;80.58;100997.38;5069341;28;20504;-75
2022/05/21 04:46:30;;;;;;;6.97;5.07;;;;;;;13.02;80.81;100995.50;5067230;28;20626;-77
2022/05/21 04:48:57;;;;;;;7.68;5.25;;;;;;;13.08;80.59;101000.50;5070225;28;20078;-76
2022/05/21 04:51:34;;;;;;;7.40;5.32;;;;;;;13.08;80.85;101009.34;5070038;28;20698;-76
2022/05/21 04:54:01;;;;;;;7.75;5.05;;;;;;;13.10;81.03;101014.59;5066842;28;20076;-75
2022/05/21 04:56:28;;;;;;;9.07;5.55;;;;;;;13.12;81.62;101008.28;5068535;28;20110;-77
2022/05/21 04:59:11;;;;;;;7.22;6.40;;;;;;;13.21;80.03;101004.38;5069471;28;20049;-75
2022/05/21 05:01:40;;;;;;;8.13;5.20;;;;;;;13.27;80.70;101007.56;5068017;28;20232;-75
2022/05/21 05:04:07;;;;;;;9.88;5.80;;;;;;;13.29;80.00;101020.81;5075042;28;20475;-76
2022/05/21 05:06:36;;;;;;;9.20;5.90;;;;;;;13.23;79.47;101008.66;5071226;28;20101;-77
2022/05/21 05:09:04;;;;;;;6.85;5.43;;;;;;;13.18;79.94;101000.06;5068160;28;20036;-76
2022/05/21 05:11:31;;;;;;;6.80;5.55;;;;;;;13.27;79.30;101025.31;5073247;28;20054;-77
2022/05/21 05:13:58;;;;;;;7.80;5.75;;;;;;;13.12;79.87;100997.66;5052598;28;20113;-76
2022/05/21 05:16:26;;;;;;;7.80;5.00;;;;;;;13.25;79.62;101014.75;5068422;28;20040;-76
2022/05/21 05:18:53;;;;;;;6.82;5.03;;;;;;;13.39;79.30;101023.88;5055968;28;20131;-76
2022/05/21 05:21:19;;;;;;;8.93;4.97;;;;;;;13.27;78.54;101002.25;5044915;28;20047;-77
2022/05/21 05:23:46;;;;;;;7.82;4.80;;;;;;;13.30;78.23;101002.13;5072701;28;20045;-77
2022/05/21 05:26:12;;;;;;;8.48;4.93;;;;;;;13.42;79.00;101018.41;5073132;28;20049;-76
2022/05/21 05:28:39;;;;;;;7.88;5.10;;;;;;;13.47;79.05;101016.38;5072513;28;20326;-77
2022/05/21 05:31:06;;;;;;;7.85;4.80;;;;;;;13.65;78.15;101007.50;5070933;28;20465;-76
2022/05/21 05:33:33;;;;;;;7.32;5.03;;;;;;;13.65;76.94;101008.38;5070155;28;20059;-75
2022/05/21 05:36:00;;;;;;;5.88;4.70;;;;;;;13.76;77.51;101017.59;5073870;28;20071;-77
2022/05/21 05:38:27;;;;;;;5.75;4.18;;;;;;;13.70;76.96;101008.13;5074045;28;20131;-76
2022/05/21 05:40:55;;;;;;;8.25;4.60;;;;;;;13.80;77.01;101013.84;5068915;28;20063;-78
2022/05/21 05:43:22;;;;;;;6.00;4.18;;;;;;;13.90;75.95;101023.09;5076307;28;20450;-75
2022/05/21 05:45:51;;;;;;;5.60;4.07;;;;;;;14.00;76.15;101025.22;5075626;28;20056;-76
2022/05/21 05:48:19;;;;;;;5.95;3.60;;;;;;;14.17;75.00;101021.66;5072880;28;20051;-78
2022/05/21 05:50:53;;;;;;;5.47;3.63;;;;;;;14.12;74.06;101005.09;5073382;28;20487;-77
2022/05/21 05:53:20;;;;;;;5.22;3.35;;;;;;;14.24;74.56;101019.56;5073151;28;20041;-77
2022/05/21 05:55:48;;;;;;;4.50;3.20;;;;;;;14.23;74.27;101013.38;5069231;28;20090;-77
2022/05/21 06:01:00;;;;;;;4.63;3.35;;;;;;;14.33;74.26;101019.06;5067668;28;20106;-76
2022/05/21 06:03:27;;;;;;;7.25;3.17;;;;;;;14.37;72.38;101010.84;5070718;28;20125;-76
2022/05/21 06:05:54;;;;;;;5.18;2.40;;;;;;;14.45;71.57;101012.28;5076725;28;20125;-76
2022/05/21 06:08:21;;;;;;;5.43;2.13;;;;;;;14.50;71.21;101011.06;5079579;28;20052;-76
2022/05/21 06:10:49;;;;;;;6.32;2.10;;;;;;;14.74;71.52;101020.44;5076399;28;20135;-76
2022/05/21 06:13:17;;;;;;;4.50;2.00;;;;;;;14.94;69.53;101029.16;5081806;28;20166;-76
2022/05/21 06:15:43;;;;;;;4.18;2.10;;;;;;;14.77;68.86;101005.22;5073643;28;20065;-76
2022/05/21 06:18:22;;;;;;;3.67;2.33;;;;;;;15.06;69.77;101031.13;5073188;28;20570;-78
2022/05/21 06:20:50;;;;;;;4.10;2.65;;;;;;;15.19;68.42;101025.97;5066095;28;20051;-76
2022/05/21 06:23:18;;;;;;;4.75;2.22;;;;;;;15.35;66.46;101008.16;5077069;28;20051;-77
2022/05/21 06:25:46;;;;;;;4.70;1.95;;;;;;;15.88;64.98;101009.56;5077776;28;20040;-77
2022/05/21 06:28:13;;;;;;;5.95;2.03;;;;;;;16.51;63.21;101025.34;5077970;28;20068;-77
2022/05/21 06:30:41;;;;;;;3.72;1.70;;;;;;;16.48;61.66;101029.91;5066848;28;20094;-76
2022/05/21 06:33:27;;;;;;;4.20;1.75;;;;;;;16.30;62.57;101024.81;5075762;28;20563;-76
2022/05/21 06:36:09;;;;;;;4.68;2.00;;;;;;;15.98;63.15;101032.97;5074875;28;20140;-76
2022/05/21 06:38:38;;;;;;;3.85;1.55;;;;;;;16.22;63.51;101008.38;5070887;28;20186;-77
2022/05/21 06:41:05;;;;;;;5.57;1.67;;;;;;;16.52;61.45;101006.53;5075234;28;20140;-76
2022/05/21 06:43:32;;;;;;;4.50;2.15;;;;;;;17.01;60.87;101020.34;5070811;28;20061;-78
2022/05/21 06:45:58;;;;;;;5.22;1.70;;;;;;;16.97;60.40;101000.13;5072651;28;20403;-77
2022/05/21 06:48:26;;;;;;;4.07;1.65;;;;;;;16.98;60.62;101025.06;5070666;28;20048;-76
2022/05/21 06:50:53;;;;;;;5.00;1.80;;;;;;;17.11;59.73;101018.81;5079682;28;20093;-76
2022/05/21 06:53:20;;;;;;;3.13;1.33;;;;;;;17.90;57.69;101025.28;5071538;28;20090;-77
2022/05/21 06:55:47;;;;;;;2.03;1.23;;;;;;;17.87;56.77;100999.56;5072920;28;20091;-77
2022/05/21 06:58:13;;;;;;;1.65;1.30;;;;;;;18.39;54.70;101023.66;5071743;28;20040;-76
2022/05/21 07:00:40;;;;;;;3.40;1.65;;;;;;;17.86;56.06;101016.59;5073742;28;20056;-76
2022/05/21 07:03:07;;;;;;;5.72;1.55;;;;;;;18.08;57.18;101024.91;5073884;28;20056;-76
2022/05/21 07:08:28;;;;;;;3.22;1.60;;;;;;;18.51;54.70;101027.28;5069591;28;20101;-76
2022/05/21 07:10:54;;;;;;;3.38;1.30;;;;;;;18.29;55.63;101029.72;5052093;28;20053;-75
2022/05/21 07:13:23;;;;;;;4.45;1.50;;;;;;;18.56;54.07;101023.34;5067126;28;20480;-76
2022/05/21 07:15:52;;;;;;;4.85;1.45;;;;;;;19.06;53.71;101018.88;5070810;28;20057;-76
2022/05/21 07:18:20;;;;;;;4.47;1.20;;;;;;;18.82;51.96;101018.81;5067541;28;20122;-76
2022/05/21 07:20:48;;;;;;;5.28;1.30;;;;;;;18.62;54.61;101031.94;5074510;28;20044;-77
2022/05/21 07:23:15;;;;;;;2.92;1.10;;;;;;;18.60;54.18;101032.03;5067792;28;20047;-78
2022/05/21 07:25:42;;;;;;;4.20;1.42;;;;;;;18.88;54.48;101028.28;5073495;28;20118;-78
2022/05/21 07:28:09;;;;;;;5.15;1.52;;;;;;;19.09;52.41;101021.34;5067980;28;20040;-74
2022/05/21 07:30:37;;;;;;;2.38;0.98;;;;;;;19.54;50.56;101011.75;5070945;28;20161;-77
2022/05/21 07:33:08;;;;;;;3.70;1.20;;;;;;;19.78;50.07;101016.28;5069098;28;20159;-76
2022/05/21 07:35:37;;;;;;;;;;;;;;;19.85;49.41;101018.38;5052903;28;20067;-78
2022/05/21 07:38:06;;;;;;;2.63;0.90;;;;;;;19.55;50.01;101020.69;5065518;28;19925;-77
2022/05/21 07:40:33;;;;;;;4.53;1.00;;;;;;;19.82;49.65;101024.00;5074755;28;20052;-77
2022/05/21 07:43:13;;;;;;;5.70;1.50;;;;;;;19.51;49.69;101024.59;5069682;28;20052;-76
2022/05/21 07:45:42;;;;;;;4.43;1.55;;;;;;;18.92;50.98;101021.69;5072587;28;20052;-75
2022/05/21 07:48:10;;;;;;;4.35;1.10;;;;;;;18.28;53.62;101007.44;5065697;28;20068;-78
2022/05/21 07:50:40;;;;;;;2.55;1.08;;;;;;;17.90;55.41;101033.31;5068120;28;20155;-75
2022/05/21 07:53:38;;;;;;;2.50;1.10;;;;;;;17.47;56.67;101028.94;5042982;28;20044;-78
2022/05/21 07:56:10;;;;;;;2.72;1.10;;;;;;;17.14;58.39;101023.13;5057869;28;20059;-76
2022/05/21 07:58:39;;;;;;;5.22;1.38;;;;;;;17.63;56.27;101031.47;5062695;28;20045;-76
2022/05/21 08:01:06;;;;;;;3.63;1.20;;;;;;;17.89;55.36;101027.09;5066335;28;20056;-80
2022/05/21 08:03:38;;;;;;;3.60;1.15;;;;;;;17.82;55.40;101002.53;5067439;28;20044;-74
2022/05/21 08:06:05;;;;;;;2.67;1.00;;;;;;;17.75;54.26;101027.19;5070137;28;20056;-77
2022/05/21 08:08:31;;;;;;;3.80;1.52;;;;;;;17.32;56.52;101029.09;5069488;28;20048;-77
2022/05/21 08:10:59;;;;;;;3.35;1.38;;;;;;;17.01;56.26;101019.50;5061642;28;20044;-74
2022/05/21 08:13:26;;;;;;;4.38;1.00;;;;;;;17.42;56.20;101007.00;5063529;28;20040;-75
2022/05/21 08:15:53;;;;;;;3.72;1.23;;;;;;;17.72;55.01;101020.19;5068065;28;20500;-77
2022/05/21 08:18:19;;;;;;;2.45;1.10;;;;;;;18.16;53.72;101027.03;5069526;28;20048;-73
2022/05/21 08:20:46;;;;;;;4.72;0.95;;;;;;;18.37;52.53;101024.72;5068145;28;20132;-70
2022/05/21 08:28:46;;;;;;;2.45;0.90;;;;;;;18.60;51.34;101010.56;5066153;28;20064;-74
2022/05/21 08:31:12;;;;;;;3.85;1.10;;;;;;;18.41;51.62;101008.31;5074303;28;20040;-73
2022/05/21 08:33:40;;;;;;;3.17;1.13;;;;;;;18.42;52.07;101017.19;5069871;28;20132;-72
2022/05/21 08:36:07;;;;;;;5.05;1.20;;;;;;;18.45;52.83;101008.94;5065616;28;20131;-73
2022/05/21 08:38:34;;;;;;;3.33;1.05;;;;;;;18.47;50.94;100978.38;5064607;28;20123;-72
2022/05/21 08:41:10;;;;;;;5.93;1.10;;;;;;;19.08;50.65;101002.66;5065540;28;20051;-76
2022/05/21 08:43:55;;;;;;;4.90;1.17;;;;;;;19.06;49.36;100992.03;5066431;28;20047;-72
2022/05/21 08:46:43;;;;;;;1.88;0.90;;;;;;;18.87;50.56;101018.50;5073267;28;20116;-74
2022/05/21 08:49:33;;;;;;;2.97;1.00;;;;;;;18.60;50.96;101021.31;5062204;28;20045;-74
2022/05/21 08:52:21;;;;;;;6.15;1.27;;;;;;;18.56;50.90;101026.00;5062630;28;20055;-75
2022/05/21 08:54:50;;;;;;;7.50;1.50;;;;;;;18.52;51.74;101008.41;5065427;28;20130;-79
2022/05/21 08:57:27;;;;;;;7.75;1.20;;;;;;;18.44;51.47;101016.13;5064026;28;20106;-75
2022/05/21 09:00:05;;;;;;;4.40;1.13;;;;;;;18.25;51.85;101004.13;5065942;28;20135;-71
2022/05/21 09:02:34;;;;;;;5.72;1.25;;;;;;;17.99;52.92;101013.94;5076752;28;20109;-72
2022/05/21 09:05:06;;;;;;;4.25;1.55;;;;;;;17.84;53.27;101005.97;5072308;28;20056;-73
2022/05/21 09:08:03;;;;;;;4.00;1.30;;;;;;;17.76;54.02;101005.66;5068794;28;20052;-73
2022/05/21 09:10:35;;;;;;;4.47;1.30;;;;;;;17.71;53.27;101018.47;5047166;28;20091;-73
2022/05/21 09:13:28;;;;;;;3.55;1.23;;;;;;;17.64;53.19;100998.41;5063965;28;20060;-73
2022/05/21 09:18:40;;;;;;;4.45;1.40;;;;;;;17.59;54.17;101013.06;5064253;28;20045;-72
2022/05/21 09:21:18;;;;;;;5.90;1.13;;;;;;;17.81;53.18;101016.88;5070804;28;20494;-72
2022/05/21 09:23:55;;;;;;;4.57;1.38;;;;;;;18.00;53.81;101013.84;5061757;28;20402;-72
2022/05/21 09:26:46;;;;;;;1.98;1.27;;;;;;;18.33;51.99;101002.63;5065742;28;20079;-71
2022/05/21 09:29:26;;;;;;;2.10;0.90;;;;;;;18.56;51.89;101007.25;5052489;28;20040;-72
2022/05/21 09:31:54;;;;;;;;;;;;;;;18.77;51.07;101001.31;5057999;28;20049;-72
2022/05/21 09:34:31;;;;;;;5.50;1.20;;;;;;;18.75;50.86;101004.13;5064595;28;19936;-72
2022/05/21 09:36:59;;;;;;;3.10;0.82;;;;;;;18.67;51.47;100998.47;5063260;28;20072;-72
2022/05/21 09:39:30;;;;;;;2.08;0.80;;;;;;;18.62;50.59;100997.91;5063008;28;20327;-72
2022/05/21 09:45:21;;;;;;;3.83;0.90;;;;;;;18.51;51.37;100987.06;5061874;28;20135;-72
2022/05/21 09:45:26;;;;;;;4.22;1.35;;;;;;;18.53;51.76;100988.69;5063610;28;20134;-71
2022/05/21 09:48:01;;;;;;;5.70;1.00;;;;;;;18.52;51.18;101002.19;5067445;28;20048;-71
2022/05/21 09:50:28;;;;;;;2.28;0.90;;;;;;;18.43;52.05;100987.59;5059736;28;20070;-72
2022/05/21 09:52:55;;;;;;;3.70;0.95;;;;;;;18.49;50.68;100997.03;5057217;28;20040;-72
2022/05/21 09:55:30;;;;;;;3.85;1.00;;;;;;;18.40;51.14;101005.75;5044509;28;20122;-73
2022/05/21 09:58:12;;;;;;;3.97;1.15;;;;;;;18.48;51.56;101000.69;5063357;28;20076;-71
2022/05/21 10:00:39;;;;;;;3.30;0.90;;;;;;;18.49;49.90;100983.63;5051204;28;20052;-71
2022/05/21 10:03:10;;;;;;;3.30;0.93;;;;;;;18.52;49.54;101008.41;5075101;28;20056;-71
2022/05/21 10:05:55;;;;;;;;;;;;;;;18.65;50.89;101004.88;5067900;28;20040;-72
2022/05/21 10:11:23;;;;;;;3.63;1.00;;;;;;;18.64;52.13;101008.53;5066948;28;20102;-72
2022/05/21 10:14:12;;;;;;;6.40;1.08;;;;;;;18.92;49.85;101010.97;5066346;28;20156;-72
2022/05/21 10:16:46;;;;;;;5.55;1.73;;;;;;;18.97;50.03;100995.41;5068867;28;20064;-72
2022/05/21 10:19:23;;;;;;;4.13;0.95;;;;;;;19.33;48.97;100999.06;5068464;28;20484;-72
2022/05/21 10:22:30;;;;;;;4.75;1.00;;;;;;;19.35;47.71;101000.66;5049925;28;20048;-71
2022/05/21 10:25:08;;;;;;;3.75;0.73;;;;;;;18.91;48.92;101015.47;5029643;28;20079;-71
2022/05/21 10:27:43;;;;;;;3.13;1.10;;;;;;;18.92;49.05;101010.97;5065022;28;20044;-71
2022/05/21 10:30:23;;;;;;;3.58;0.90;;;;;;;19.37;47.94;101008.56;5062879;28;20052;-73
2022/05/21 10:33:24;;;;;;;5.72;1.60;;;;;;;19.77;45.26;101004.69;5064650;28;20075;-70
2022/05/21 10:35:56;;;;;;;2.95;0.95;;;;;;;19.50;45.10;101001.38;5070777;28;20052;-71
2022/05/21 10:39:13;;;;;;;4.45;1.05;;;;;;;19.60;45.55;101008.63;5069803;28;20048;-72
2022/05/21 10:42:14;;;;;;;2.95;0.80;;;;;;;19.75;46.73;101006.63;5030005;28;20080;-72
2022/05/21 10:45:01;;;;;;;4.00;1.13;;;;;;;19.67;46.48;100998.28;5057905;28;20068;-69
2022/05/21 10:48:09;;;;;;;3.67;1.30;;;;;;;19.96;46.50;100986.19;5064062;28;20550;-70
2022/05/21 10:50:52;;;;;;;4.20;1.23;;;;;;;19.99;46.66;100970.78;5064711;28;20550;-71
2022/05/21 10:53:48;;;;;;;4.43;1.10;;;;;;;19.84;47.40;100983.53;5078398;28;20113;-71
2022/05/21 10:56:41;;;;;;;4.65;1.15;;;;;;;19.76;47.49;100977.91;5065165;28;20048;-70
2022/05/21 10:59:18;;;;;;;2.35;0.93;;;;;;;20.04;46.14;100988.25;5063568;28;20045;-69
2022/05/21 11:02:37;;;;;;;3.17;1.60;;;;;;;20.06;45.68;100994.38;5066537;28;20044;-71
2022/05/21 11:05:20;;;;;;;5.10;1.20;;;;;;;19.81;45.91;100987.34;5061207;28;20633;-70
2022/05/21 11:08:01;;;;;;;4.68;1.17;;;;;;;19.61;46.19;100994.22;5062807;28;20569;-71
2022/05/21 11:10:50;;;;;;;2.95;1.13;;;;;;;19.71;47.22;100989.00;5071480;28;20474;-72
2022/05/21 11:13:23;;;;;;;3.22;1.00;;;;;;;19.81;46.13;101005.31;5062843;28;20044;-71
2022/05/21 11:15:56;;;;;;;4.68;1.02;;;;;;;19.54;46.60;100987.59;5066047;28;20092;-72
2022/05/21 11:18:38;;;;;;;5.10;1.13;;;;;;;19.47;46.13;100989.00;5065202;28;20097;-71
2022/05/21 11:21:48;;;;;;;2.00;0.63;;;;;;;19.29;47.09;100987.66;5062401;28;20040;-71
2022/05/21 11:24:45;;;;;;;2.92;0.80;;;;;;;19.01;46.70;100994.22;5064487;28;20109;-71
2022/05/21 11:27:22;;;;;;;2.03;0.73;;;;;;;19.13;46.38;100966.47;5063387;28;20037;-72
2022/05/21 11:29:56;;;;;;;2.67;0.73;;;;;;;19.22;45.23;100964.91;5062620;28;20068;-73
2022/05/21 11:38:26;;;;;;;4.05;1.00;;;;;;;19.98;42.81;100974.44;5065760;28;20488;-70
2022/05/21 11:44:55;;;;;;;3.53;0.80;;;;;;;20.23;41.47;100985.00;5068798;28;20045;-71
2022/05/21 11:46:47;;;;;;;3.40;1.10;;;;;;;20.05;41.66;100981.06;5065353;28;20105;-69
2022/05/21 11:49:45;;;;;;;3.08;0.85;;;;;;;19.88;41.21;100983.19;5063916;28;20048;-71
2022/05/21 11:52:30;;;;;;;2.85;0.85;;;;;;;20.07;42.18;100973.72;5063864;28;20385;-71
2022/05/21 11:54:57;;;;;;;3.47;0.75;;;;;;;20.54;42.74;100970.03;5062819;28;20053;-71
2022/05/21 11:57:45;;;;;;;1.50;0.90;;;;;;;20.70;40.39;100953.53;5063104;28;20063;-71
2022/05/21 12:00:18;;;;;;;3.50;0.80;;;;;;;20.75;40.74;100972.84;5064931;28;20048;-71
2022/05/21 12:02:53;;;;;;;2.45;1.00;;;;;;;20.88;40.45;100973.56;5064601;28;20044;-73
2022/05/21 12:05:37;;;;;;;1.85;0.82;;;;;;;20.92;39.79;100956.19;5063766;28;20143;-72
2022/05/21 12:08:23;;;;;;;2.83;0.70;;;;;;;20.99;39.63;100973.56;5065184;28;20056;-71
2022/05/21 12:11:04;;;;;;;2.13;0.90;;;;;;;20.99;39.75;100978.94;5060376;28;20070;-72
2022/05/21 12:13:34;;;;;;;2.15;0.85;;;;;;;20.75;40.04;100937.88;5061668;28;20079;-72
2022/05/21 12:16:21;;;;;;;4.03;1.03;;;;;;;20.80;40.32;100970.63;5065986;28;20462;-71
2022/05/21 12:18:54;;;;;;;2.30;0.93;;;;;;;20.99;40.08;100962.78;5063370;28;20470;-72
2022/05/21 12:21:27;;;;;;;4.13;1.00;;;;;;;21.07;39.66;100963.03;5062400;28;20052;-71
2022/05/21 12:23:54;;;;;;;2.03;0.90;;;;;;;20.56;40.66;100944.72;5063794;28;20056;-73
2022/05/21 12:26:31;;;;;;;5.82;1.15;;;;;;;20.83;40.71;100967.69;5065547;28;20059;-72